createdAt,value
2023-08-15T00:00:09.771Z,23.41
2023-08-15T00:02:40.185Z,23.39
2023-08-15T00:05:08.366Z,23.38
2023-08-15T00:07:50.791Z,23.28
2023-08-15T00:10:18.509Z,23.32
2023-08-15T00:12:46.175Z,23.28
2023-08-15T00:15:13.717Z,23.27
2023-08-15T00:17:41.432Z,23.27
2023-08-15T00:20:09.291Z,23.23
2023-08-15T00:22:36.790Z,23.26
2023-08-15T00:25:04.732Z,23.21
2023-08-15T00:27:32.582Z,23.23
2023-08-15T00:30:00.334Z,23.24
2023-08-15T00:32:36.784Z,23.27
2023-08-15T00:35:05.199Z,23.13
2023-08-15T00:37:33.855Z,23.14
2023-08-15T00:40:02.523Z,23.15
2023-08-15T00:42:30.614Z,23.18
2023-08-15T00:44:59.196Z,23.06
2023-08-15T00:47:26.885Z,23.06
2023-08-15T00:49:54.646Z,23.05
2023-08-15T00:52:22.461Z,22.97
2023-08-15T00:54:51.314Z,22.98
2023-08-15T00:57:20.129Z,22.97
2023-08-15T00:59:48.674Z,22.93
2023-08-15T01:02:16.198Z,22.94
2023-08-15T01:04:44.319Z,22.93
2023-08-15T01:07:12.391Z,22.88
2023-08-15T01:09:43.179Z,22.87
2023-08-15T01:12:30.318Z,22.83
2023-08-15T01:15:04.324Z,22.83
2023-08-15T01:17:38.874Z,22.78
2023-08-15T01:20:10.726Z,22.75
2023-08-15T01:22:44.880Z,22.78
2023-08-15T01:25:12.719Z,22.82
2023-08-15T01:27:40.178Z,22.70
2023-08-15T01:30:08.409Z,22.70
2023-08-15T01:33:03.114Z,22.61
2023-08-15T01:35:48.254Z,22.58
2023-08-15T01:38:25.460Z,22.68
2023-08-15T01:40:54.484Z,22.65
2023-08-15T01:43:23.231Z,22.56
2023-08-15T01:45:50.819Z,22.59
2023-08-15T01:48:18.234Z,22.52
2023-08-15T01:50:46.145Z,22.58
2023-08-15T01:53:13.579Z,22.58
2023-08-15T01:55:41.044Z,22.50
2023-08-15T01:58:08.980Z,22.58
2023-08-15T02:00:36.546Z,22.57
2023-08-15T02:03:04.525Z,22.59
2023-08-15T02:05:34.230Z,22.59
2023-08-15T02:08:03.362Z,22.57
2023-08-15T02:10:31.067Z,22.52
2023-08-15T02:12:58.481Z,22.50
2023-08-15T02:15:26.284Z,22.48
2023-08-15T02:17:54.089Z,22.51
2023-08-15T02:20:21.935Z,22.46
2023-08-15T02:22:49.428Z,22.44
2023-08-15T02:25:16.926Z,22.41
2023-08-15T02:27:45.531Z,22.44
2023-08-15T02:30:13.304Z,22.45
2023-08-15T02:32:40.892Z,22.46
2023-08-15T02:35:12.796Z,22.41
2023-08-15T02:37:40.762Z,22.44
2023-08-15T02:40:10.857Z,22.40
2023-08-15T02:42:38.453Z,22.45
2023-08-15T02:45:06.838Z,22.41
2023-08-15T02:47:34.584Z,22.42
2023-08-15T02:50:02.051Z,22.43
2023-08-15T02:52:30.790Z,22.40
2023-08-15T02:54:58.588Z,22.43
2023-08-15T02:57:26.090Z,22.42
2023-08-15T02:59:53.527Z,22.36
2023-08-15T03:02:21.461Z,22.32
2023-08-15T03:04:49.372Z,22.27
2023-08-15T03:07:16.865Z,22.30
2023-08-15T03:09:44.560Z,22.29
2023-08-15T03:12:12.089Z,22.24
2023-08-15T03:14:39.541Z,22.25
2023-08-15T03:17:08.818Z,22.21
2023-08-15T03:19:36.656Z,22.23
2023-08-15T03:22:04.125Z,22.23
2023-08-15T03:24:32.610Z,22.23
2023-08-15T03:27:02.208Z,22.17
2023-08-15T03:29:31.797Z,22.18
2023-08-15T03:32:00.197Z,22.18
2023-08-15T03:34:28.139Z,22.14
2023-08-15T03:36:57.376Z,22.08
2023-08-15T03:39:24.859Z,22.08
2023-08-15T03:41:52.300Z,22.05
2023-08-15T03:44:20.058Z,22.08
2023-08-15T03:46:48.580Z,22.08
2023-08-15T03:49:16.628Z,22.07
2023-08-15T03:51:47.385Z,21.94
2023-08-15T03:54:15.287Z,21.94
2023-08-15T03:56:42.898Z,22.02
2023-08-15T03:59:10.709Z,21.97
2023-08-15T04:01:38.348Z,22.01
2023-08-15T04:04:06.949Z,21.83
2023-08-15T04:06:34.766Z,21.96
2023-08-15T04:09:02.653Z,21.96
2023-08-15T04:11:30.465Z,22.01
2023-08-15T04:13:58.943Z,22.09
2023-08-15T04:16:26.667Z,22.10
2023-08-15T04:18:54.496Z,21.97
2023-08-15T04:21:22.004Z,22.04
2023-08-15T04:23:49.466Z,22.13
2023-08-15T04:26:18.566Z,22.15
2023-08-15T04:28:47.893Z,22.21
2023-08-15T04:31:15.429Z,22.21
2023-08-15T04:33:43.164Z,22.26
2023-08-15T04:36:10.840Z,22.15
2023-08-15T04:38:39.353Z,22.27
2023-08-15T04:41:08.006Z,22.22
2023-08-15T04:43:35.448Z,22.36
2023-08-15T04:46:02.961Z,22.36
2023-08-15T04:48:30.748Z,22.49
2023-08-15T04:50:58.254Z,22.54
2023-08-15T04:53:25.744Z,22.54
2023-08-15T04:55:53.635Z,22.67
2023-08-15T04:58:21.185Z,22.74
2023-08-15T05:00:49.203Z,22.84
2023-08-15T05:03:17.031Z,22.91
2023-08-15T05:05:44.545Z,23.02
2023-08-15T05:08:13.274Z,23.03
2023-08-15T05:10:41.123Z,23.08
2023-08-15T05:13:10.180Z,23.20
2023-08-15T05:15:37.759Z,23.31
2023-08-15T05:18:05.874Z,23.38
2023-08-15T05:20:35.221Z,23.46
2023-08-15T05:23:05.010Z,23.56
2023-08-15T05:25:32.816Z,23.65
2023-08-15T05:28:07.340Z,23.82
2023-08-15T05:30:35.279Z,23.81
2023-08-15T05:33:02.908Z,23.91
2023-08-15T05:35:30.683Z,23.95
2023-08-15T05:37:58.546Z,24.10
2023-08-15T05:40:27.315Z,24.17
2023-08-15T05:42:54.780Z,24.43
2023-08-15T05:45:22.504Z,24.59
2023-08-15T05:47:50.189Z,24.90
2023-08-15T05:50:17.817Z,24.93
2023-08-15T05:52:45.551Z,25.04
2023-08-15T05:55:12.974Z,25.33
2023-08-15T05:57:40.461Z,25.40
2023-08-15T06:00:09.725Z,25.46
2023-08-15T06:02:40.238Z,25.50
2023-08-15T06:05:08.301Z,25.73
2023-08-15T06:07:35.784Z,26.13
2023-08-15T06:10:03.281Z,26.22
2023-08-15T06:12:31.085Z,26.38
2023-08-15T06:14:58.530Z,26.61
2023-08-15T06:17:26.051Z,26.76
2023-08-15T06:19:54.669Z,26.86
2023-08-15T06:22:22.198Z,26.98
2023-08-15T06:24:49.882Z,27.15
2023-08-15T06:27:17.622Z,27.36
2023-08-15T06:29:45.064Z,27.65
2023-08-15T06:32:26.361Z,27.78
2023-08-15T06:34:54.174Z,27.94
2023-08-15T06:37:21.884Z,28.15
2023-08-15T06:39:49.546Z,28.38
2023-08-15T06:42:17.533Z,28.47
2023-08-15T06:44:44.956Z,28.58
2023-08-15T06:47:12.535Z,28.83
2023-08-15T06:49:40.278Z,29.00
2023-08-15T06:52:10.665Z,29.12
2023-08-15T06:54:38.081Z,29.25
2023-08-15T06:57:08.475Z,29.41
2023-08-15T06:59:36.696Z,29.59
2023-08-15T07:02:04.636Z,29.59
2023-08-15T07:04:34.120Z,29.73
2023-08-15T07:07:01.577Z,29.89
2023-08-15T07:09:30.209Z,29.92
2023-08-15T07:11:57.891Z,30.04
2023-08-15T07:14:25.325Z,30.23
2023-08-15T07:16:52.925Z,30.31
2023-08-15T07:19:20.726Z,30.52
2023-08-15T07:21:48.427Z,30.42
2023-08-15T07:24:18.367Z,30.41
2023-08-15T07:26:46.702Z,30.44
2023-08-15T07:29:14.134Z,30.53
2023-08-15T07:31:42.261Z,30.33
2023-08-15T07:34:10.067Z,30.54
2023-08-15T07:36:37.532Z,30.69
2023-08-15T07:39:05.159Z,30.89
2023-08-15T07:41:33.350Z,30.82
2023-08-15T07:44:00.869Z,30.92
2023-08-15T07:46:29.007Z,31.09
2023-08-15T07:48:58.345Z,31.17
2023-08-15T07:51:25.879Z,31.05
2023-08-15T07:53:53.288Z,31.01
2023-08-15T07:56:21.030Z,31.03
2023-08-15T07:58:48.493Z,31.02
2023-08-15T08:01:15.922Z,31.22
2023-08-15T08:03:43.929Z,31.20
2023-08-15T08:06:31.719Z,31.15
2023-08-15T08:08:59.040Z,31.10
2023-08-15T08:11:26.436Z,31.19
2023-08-15T08:13:53.966Z,31.33
2023-08-15T08:16:22.723Z,31.38
2023-08-15T08:18:50.269Z,31.49
2023-08-15T08:21:17.694Z,31.59
2023-08-15T08:23:45.502Z,31.59
2023-08-15T08:26:13.199Z,31.73
2023-08-15T08:28:41.077Z,31.61
2023-08-15T08:31:08.983Z,31.73
2023-08-15T08:33:36.461Z,31.60
2023-08-15T08:36:04.268Z,31.71
2023-08-15T08:38:31.990Z,31.96
2023-08-15T08:40:59.455Z,31.81
2023-08-15T08:43:27.573Z,31.92
2023-08-15T08:45:59.350Z,32.05
2023-08-15T08:48:26.660Z,32.11
2023-08-15T08:50:59.430Z,32.18
2023-08-15T08:53:27.517Z,32.38
2023-08-15T08:55:56.182Z,32.38
2023-08-15T08:58:26.338Z,32.20
2023-08-15T09:00:54.915Z,32.27
2023-08-15T09:03:22.848Z,32.44
2023-08-15T09:05:50.784Z,32.30
2023-08-15T09:08:18.524Z,32.36
2023-08-15T09:10:46.621Z,32.56
2023-08-15T09:13:22.597Z,32.74
2023-08-15T09:15:51.413Z,32.67
2023-08-15T09:18:23.396Z,32.74
2023-08-15T09:20:51.163Z,32.89
2023-08-15T09:23:18.692Z,32.91
2023-08-15T09:25:48.605Z,32.85
2023-08-15T09:28:16.630Z,32.86
2023-08-15T09:30:52.124Z,32.98
2023-08-15T09:33:20.535Z,33.07
2023-08-15T09:35:57.938Z,33.13
2023-08-15T09:38:27.921Z,33.28
2023-08-15T09:40:56.972Z,33.30
2023-08-15T09:43:24.466Z,33.34
2023-08-15T09:45:52.417Z,33.24
2023-08-15T09:48:20.614Z,33.26
2023-08-15T09:50:50.992Z,33.42
2023-08-15T09:53:21.697Z,33.52
2023-08-15T09:55:49.283Z,33.62
2023-08-15T09:58:17.915Z,33.57
2023-08-15T10:00:50.986Z,33.67
2023-08-15T10:03:39.279Z,33.67
2023-08-15T10:06:10.721Z,33.82
2023-08-15T10:08:40.940Z,33.76
2023-08-15T10:11:12.023Z,33.81
2023-08-15T10:13:40.566Z,33.92
2023-08-15T10:16:11.495Z,33.97
2023-08-15T10:18:39.054Z,33.95
2023-08-15T10:21:10.057Z,33.92
2023-08-15T10:23:38.395Z,34.04
2023-08-15T10:26:06.665Z,34.14
2023-08-15T10:28:35.152Z,33.94
2023-08-15T10:31:02.796Z,34.09
2023-08-15T10:33:32.818Z,34.20
2023-08-15T10:36:00.622Z,34.26
2023-08-15T10:38:31.738Z,34.37
2023-08-15T10:41:04.454Z,34.44
2023-08-15T10:43:36.409Z,34.48
2023-08-15T10:46:06.036Z,34.58
2023-08-15T10:49:01.651Z,34.71
2023-08-15T10:51:34.029Z,34.79
2023-08-15T10:54:03.974Z,34.77
2023-08-15T10:56:33.296Z,34.81
2023-08-15T10:59:06.370Z,34.81
2023-08-15T11:01:35.866Z,34.85
2023-08-15T11:04:03.978Z,34.89
2023-08-15T11:06:31.888Z,34.75
2023-08-15T11:09:00.120Z,34.86
2023-08-15T11:11:27.633Z,34.88
2023-08-15T11:13:56.778Z,35.01
2023-08-15T11:16:24.847Z,34.92
2023-08-15T11:18:56.623Z,34.94
2023-08-15T11:21:29.215Z,35.00
2023-08-15T11:24:01.389Z,35.09
2023-08-15T11:26:29.351Z,35.04
2023-08-15T11:28:56.906Z,35.08
2023-08-15T11:31:24.688Z,35.20
2023-08-15T11:33:55.197Z,35.07
2023-08-15T11:36:22.905Z,35.17
2023-08-15T11:38:50.677Z,35.11
2023-08-15T11:41:18.212Z,35.20
2023-08-15T11:43:46.070Z,35.21
2023-08-15T11:46:13.894Z,35.19
2023-08-15T11:48:45.271Z,35.01
2023-08-15T11:51:18.976Z,35.06
2023-08-15T11:53:54.256Z,35.14
2023-08-15T11:56:22.153Z,35.10
2023-08-15T11:58:49.932Z,35.03
2023-08-15T12:01:17.477Z,34.95
2023-08-15T12:03:45.391Z,34.91
2023-08-15T12:06:15.629Z,34.93
2023-08-15T12:08:46.277Z,34.73
2023-08-15T12:11:18.755Z,34.83
2023-08-15T12:13:46.621Z,35.04
2023-08-15T12:16:14.443Z,34.94
2023-08-15T12:18:41.933Z,34.95
2023-08-15T12:21:13.447Z,35.04
2023-08-15T12:23:41.871Z,34.98
2023-08-15T12:26:09.342Z,34.81
2023-08-15T12:28:37.139Z,34.81
2023-08-15T12:31:05.161Z,34.79
2023-08-15T12:33:43.611Z,34.87
2023-08-15T12:36:15.824Z,34.80
2023-08-15T12:38:43.713Z,34.77
2023-08-15T12:41:14.391Z,34.73
2023-08-15T12:43:42.496Z,34.74
2023-08-15T12:46:09.990Z,34.63
2023-08-15T12:48:37.420Z,34.65
2023-08-15T12:51:05.142Z,34.81
2023-08-15T12:53:32.596Z,34.70
2023-08-15T12:56:00.047Z,34.74
2023-08-15T12:58:27.797Z,34.70
2023-08-15T13:00:55.362Z,34.56
2023-08-15T13:03:22.826Z,34.54
2023-08-15T13:05:50.760Z,34.64
2023-08-15T13:08:20.369Z,34.69
2023-08-15T13:10:48.842Z,34.77
2023-08-15T13:13:16.642Z,34.73
2023-08-15T13:15:44.089Z,34.65
2023-08-15T13:18:11.633Z,34.62
2023-08-15T13:20:39.944Z,34.59
2023-08-15T13:23:07.373Z,34.68
2023-08-15T13:25:34.996Z,34.69
2023-08-15T13:28:02.684Z,34.74
2023-08-15T13:30:30.217Z,34.76
2023-08-15T13:32:58.857Z,34.76
2023-08-15T13:35:26.669Z,34.73
2023-08-15T13:37:54.115Z,34.75
2023-08-15T13:40:21.558Z,34.73
2023-08-15T13:42:49.479Z,34.86
2023-08-15T13:45:18.448Z,34.85
2023-08-15T13:47:46.169Z,34.96
2023-08-15T13:50:13.914Z,34.84
2023-08-15T13:52:41.334Z,34.79
2023-08-15T13:55:09.251Z,34.78
2023-08-15T13:57:36.967Z,34.70
2023-08-15T14:00:04.849Z,34.67
2023-08-15T14:02:36.421Z,34.63
2023-08-15T14:05:05.651Z,34.68
2023-08-15T14:07:33.923Z,34.68
2023-08-15T14:10:01.534Z,34.72
2023-08-15T14:12:30.261Z,34.80
2023-08-15T14:14:57.946Z,34.85
2023-08-15T14:17:25.594Z,34.84
2023-08-15T14:19:53.831Z,34.92
2023-08-15T14:22:21.572Z,34.95
2023-08-15T14:24:50.124Z,34.85
2023-08-15T14:27:20.687Z,34.79
2023-08-15T14:29:49.814Z,34.68
2023-08-15T14:32:18.138Z,34.67
2023-08-15T14:34:47.509Z,34.80
2023-08-15T14:37:14.998Z,34.75
2023-08-15T14:39:43.421Z,34.77
2023-08-15T14:42:11.255Z,34.72
2023-08-15T14:44:38.694Z,34.78
2023-08-15T14:47:06.132Z,34.79
2023-08-15T14:49:33.847Z,34.84
2023-08-15T14:52:02.589Z,34.87
2023-08-15T14:54:30.190Z,34.86
2023-08-15T14:56:58.094Z,34.77
2023-08-15T14:59:25.519Z,34.75
2023-08-15T15:02:02.356Z,34.77
2023-08-15T15:04:32.241Z,34.71
2023-08-15T15:06:59.659Z,34.57
2023-08-15T15:09:27.127Z,34.49
2023-08-15T15:11:55.416Z,34.44
2023-08-15T15:14:23.015Z,34.50
2023-08-15T15:16:51.510Z,34.44
2023-08-15T15:19:19.403Z,34.32
2023-08-15T15:21:47.236Z,34.28
2023-08-15T15:24:14.830Z,34.22
2023-08-15T15:26:42.922Z,34.22
2023-08-15T15:29:10.363Z,34.25
2023-08-15T15:31:37.928Z,34.13
2023-08-15T15:34:06.004Z,34.09
2023-08-15T15:36:33.787Z,34.10
2023-08-15T15:39:01.451Z,34.01
2023-08-15T15:41:29.995Z,33.91
2023-08-15T15:43:57.868Z,33.92
2023-08-15T15:46:26.291Z,33.97
2023-08-15T15:48:55.101Z,33.94
2023-08-15T15:51:26.367Z,34.00
2023-08-15T15:53:53.967Z,33.88
2023-08-15T15:56:21.698Z,33.81
2023-08-15T15:58:49.296Z,33.83
2023-08-15T16:01:20.573Z,33.89
2023-08-15T16:03:58.783Z,33.86
2023-08-15T16:06:28.049Z,33.80
2023-08-15T16:08:59.586Z,33.68
2023-08-15T16:11:27.660Z,33.72
2023-08-15T16:13:55.906Z,33.68
2023-08-15T16:16:26.707Z,33.61
2023-08-15T16:18:54.981Z,33.68
2023-08-15T16:21:31.358Z,33.60
2023-08-15T16:24:07.495Z,33.43
2023-08-15T16:26:38.310Z,33.35
2023-08-15T16:29:06.075Z,33.30
2023-08-15T16:31:33.678Z,33.21
2023-08-15T16:34:01.249Z,33.15
2023-08-15T16:36:28.979Z,33.28
2023-08-15T16:38:56.455Z,33.16
2023-08-15T16:41:23.859Z,33.15
2023-08-15T16:43:51.937Z,33.15
2023-08-15T16:46:19.553Z,33.07
2023-08-15T16:48:47.864Z,33.04
2023-08-15T16:51:15.808Z,33.04
2023-08-15T16:53:43.381Z,32.97
2023-08-15T16:56:10.951Z,32.90
2023-08-15T16:58:38.869Z,32.85
2023-08-15T17:01:06.420Z,32.82
2023-08-15T17:03:34.134Z,32.77
2023-08-15T17:06:01.927Z,32.86
2023-08-15T17:08:29.468Z,32.70
2023-08-15T17:10:57.000Z,32.60
2023-08-15T17:13:24.993Z,32.52
2023-08-15T17:15:52.431Z,32.41
2023-08-15T17:18:19.862Z,32.40
2023-08-15T17:20:47.695Z,32.33
2023-08-15T17:23:15.119Z,32.29
2023-08-15T17:25:42.735Z,32.22
2023-08-15T17:28:10.478Z,32.22
2023-08-15T17:30:37.906Z,32.15
2023-08-15T17:33:05.700Z,32.13
2023-08-15T17:35:33.478Z,32.14
2023-08-15T17:38:00.946Z,32.09
2023-08-15T17:40:28.375Z,31.99
2023-08-15T17:42:56.041Z,31.83
2023-08-15T17:45:23.504Z,31.78
2023-08-15T17:47:51.127Z,31.70
2023-08-15T17:50:18.991Z,31.63
2023-08-15T17:52:47.401Z,31.37
2023-08-15T17:55:15.002Z,31.13
2023-08-15T17:57:42.793Z,30.88
2023-08-15T18:00:10.874Z,30.47
2023-08-15T18:02:38.398Z,30.50
2023-08-15T18:05:06.952Z,30.49
2023-08-15T18:07:34.519Z,30.34
2023-08-15T18:10:02.168Z,30.24
2023-08-15T18:12:30.751Z,30.19
2023-08-15T18:14:58.471Z,30.22
2023-08-15T18:17:25.937Z,30.17
2023-08-15T18:19:54.355Z,30.10
2023-08-15T18:22:21.974Z,29.96
2023-08-15T18:24:49.696Z,29.85
2023-08-15T18:27:19.889Z,29.76
2023-08-15T18:29:48.355Z,29.65
2023-08-15T18:32:15.847Z,29.65
2023-08-15T18:34:43.588Z,29.63
2023-08-15T18:37:11.072Z,29.61
2023-08-15T18:39:38.581Z,29.47
2023-08-15T18:42:06.279Z,29.41
2023-08-15T18:44:33.787Z,29.35
2023-08-15T18:47:03.428Z,29.32
2023-08-15T18:49:31.414Z,29.38
2023-08-15T18:52:01.271Z,29.32
2023-08-15T18:54:28.957Z,29.18
2023-08-15T18:56:56.690Z,29.12
2023-08-15T18:59:24.420Z,29.00
2023-08-15T19:01:52.110Z,28.90
2023-08-15T19:04:19.886Z,28.81
2023-08-15T19:06:47.831Z,28.71
2023-08-15T19:09:15.299Z,28.64
2023-08-15T19:11:43.077Z,28.59
2023-08-15T19:14:11.329Z,28.56
2023-08-15T19:16:38.786Z,28.38
2023-08-15T19:19:06.579Z,28.41
2023-08-15T19:21:34.061Z,28.30
2023-08-15T19:24:01.491Z,28.15
2023-08-15T19:26:29.228Z,28.22
2023-08-15T19:28:56.687Z,28.14
2023-08-15T19:31:24.308Z,28.19
2023-08-15T19:33:52.191Z,28.11
2023-08-15T19:36:19.661Z,28.05
2023-08-15T19:38:47.044Z,27.98
2023-08-15T19:41:14.734Z,27.88
2023-08-15T19:43:42.167Z,27.87
2023-08-15T19:46:09.681Z,27.69
2023-08-15T19:48:37.454Z,27.55
2023-08-15T19:51:05.046Z,27.51
2023-08-15T19:53:32.516Z,27.62
2023-08-15T19:56:00.268Z,27.64
2023-08-15T19:58:27.757Z,27.87
2023-08-15T20:00:55.282Z,27.83
2023-08-15T20:03:23.161Z,27.80
2023-08-15T20:05:50.644Z,27.66
2023-08-15T20:08:18.182Z,27.64
2023-08-15T20:10:51.526Z,27.59
2023-08-15T20:13:22.008Z,27.59
2023-08-15T20:15:51.161Z,27.45
2023-08-15T20:18:18.646Z,27.27
2023-08-15T20:20:46.728Z,27.17
2023-08-15T20:23:16.533Z,27.11
2023-08-15T20:25:44.673Z,27.09
2023-08-15T20:28:14.768Z,27.09
2023-08-15T20:30:42.729Z,26.98
2023-08-15T20:33:10.269Z,26.91
2023-08-15T20:35:37.745Z,26.94
2023-08-15T20:38:05.593Z,26.78
2023-08-15T20:40:33.305Z,26.79
2023-08-15T20:43:00.730Z,26.87
2023-08-15T20:45:28.492Z,26.69
2023-08-15T20:47:56.043Z,26.68
2023-08-15T20:50:23.850Z,26.67
2023-08-15T20:52:54.648Z,26.64
2023-08-15T20:55:22.319Z,26.59
2023-08-15T20:57:49.805Z,26.58
2023-08-15T21:00:17.548Z,26.55
2023-08-15T21:02:45.150Z,26.52
2023-08-15T21:05:13.843Z,26.47
2023-08-15T21:07:41.595Z,26.47
2023-08-15T21:10:09.497Z,26.40
2023-08-15T21:12:36.938Z,26.41
2023-08-15T21:15:05.108Z,26.35
2023-08-15T21:17:32.983Z,26.26
2023-08-15T21:20:00.479Z,26.29
2023-08-15T21:22:29.862Z,26.27
2023-08-15T21:24:57.497Z,26.32
2023-08-15T21:27:25.103Z,26.29
2023-08-15T21:29:53.026Z,26.34
2023-08-15T21:32:20.540Z,26.27
2023-08-15T21:34:47.938Z,26.25
2023-08-15T21:37:15.983Z,26.32
2023-08-15T21:39:43.555Z,26.34
2023-08-15T21:42:11.005Z,26.31
2023-08-15T21:44:38.736Z,26.27
2023-08-15T21:47:06.204Z,26.26
2023-08-15T21:49:33.690Z,26.24
2023-08-15T21:52:03.177Z,26.19
2023-08-15T21:54:30.611Z,26.22
2023-08-15T21:57:04.356Z,26.23
2023-08-15T21:59:32.765Z,26.22
2023-08-15T22:02:00.606Z,26.09
2023-08-15T22:04:28.389Z,26.19
2023-08-15T22:06:55.820Z,26.14
2023-08-15T22:09:23.296Z,26.19
2023-08-15T22:11:51.013Z,26.20
2023-08-15T22:14:19.806Z,26.19
2023-08-15T22:16:47.375Z,26.20
2023-08-15T22:19:16.285Z,26.14
2023-08-15T22:21:43.861Z,26.08
2023-08-15T22:24:11.396Z,26.14
2023-08-15T22:26:39.225Z,26.05
2023-08-15T22:29:06.740Z,26.08
2023-08-15T22:31:34.280Z,26.09
2023-08-15T22:34:02.191Z,26.13
2023-08-15T22:36:29.790Z,26.07
2023-08-15T22:38:57.298Z,26.11
2023-08-15T22:41:25.020Z,26.00
2023-08-15T22:43:52.489Z,26.08
2023-08-15T22:46:20.005Z,26.06
2023-08-15T22:48:47.818Z,26.10
2023-08-15T22:51:15.272Z,26.09
2023-08-15T22:53:45.784Z,26.07
2023-08-15T22:56:13.488Z,25.95
2023-08-15T22:58:41.373Z,26.04
2023-08-15T23:01:08.916Z,26.06
2023-08-15T23:03:36.695Z,26.03
2023-08-15T23:06:05.895Z,26.03
2023-08-15T23:08:34.072Z,25.96
2023-08-15T23:11:01.763Z,25.93
2023-08-15T23:13:29.213Z,26.01
2023-08-15T23:15:56.757Z,26.00
2023-08-15T23:18:24.548Z,25.98
2023-08-15T23:20:52.370Z,25.96
2023-08-15T23:23:19.898Z,25.90
2023-08-15T23:25:47.620Z,25.97
2023-08-15T23:28:15.056Z,25.91
2023-08-15T23:30:42.482Z,25.87
2023-08-15T23:33:10.302Z,25.86
2023-08-15T23:35:37.860Z,25.79
2023-08-15T23:38:05.271Z,25.85
2023-08-15T23:40:32.978Z,25.76
2023-08-15T23:43:00.458Z,25.77
2023-08-15T23:45:30.068Z,25.77
2023-08-15T23:47:57.818Z,25.71
2023-08-15T23:50:25.249Z,25.66
2023-08-15T23:52:52.955Z,25.64
2023-08-15T23:55:20.777Z,25.62
2023-08-15T23:57:48.379Z,25.59
